createdAt,value
2023-06-17T00:00:11.898Z,96297.63
2023-06-17T00:00:43.758Z,96299.88
2023-06-17T00:01:16.633Z,96296.09
2023-06-17T00:01:48.445Z,96301.03
2023-06-17T00:02:20.192Z,96297.97
2023-06-17T00:02:52.525Z,96299.53
2023-06-17T00:03:24.433Z,96293.75
2023-06-17T00:03:56.389Z,96294.47
2023-06-17T00:04:28.318Z,96290.88
2023-06-17T00:05:00.122Z,96292.03
2023-06-17T00:05:31.995Z,96298.53
2023-06-17T00:06:03.799Z,96293.16
2023-06-17T00:06:35.807Z,96285.88
2023-06-17T00:07:07.687Z,96290.03
2023-06-17T00:07:40.764Z,96288.84
2023-06-17T00:08:12.536Z,96290.69
2023-06-17T00:08:44.410Z,96293.75
2023-06-17T00:09:16.262Z,96292.56
2023-06-17T00:09:48.215Z,96289.88
2023-06-17T00:10:20.589Z,96294.94
2023-06-17T00:10:52.565Z,96292.97
2023-06-17T00:11:24.356Z,96292.56
2023-06-17T00:11:57.931Z,96291.72
2023-06-17T00:12:32.938Z,96297.56
2023-06-17T00:13:08.544Z,96287.53
2023-06-17T00:13:40.359Z,96285.97
2023-06-17T00:14:12.171Z,96288.66
2023-06-17T00:14:44.652Z,96289.38
2023-06-17T00:15:17.885Z,96292.84
2023-06-17T00:15:57.778Z,96286.34
2023-06-17T00:16:29.639Z,96289.25
2023-06-17T00:17:01.954Z,96284.31
2023-06-17T00:17:33.863Z,96284.72
2023-06-17T00:18:06.584Z,96285.91
2023-06-17T00:18:40.225Z,96288.53
2023-06-17T00:19:16.850Z,96285.06
2023-06-17T00:19:49.363Z,96278.09
2023-06-17T00:20:21.452Z,96283.47
2023-06-17T00:20:54.341Z,96286.09
2023-06-17T00:21:26.141Z,96286.03
2023-06-17T00:21:57.985Z,96281.09
2023-06-17T00:22:30.984Z,96289.19
2023-06-17T00:23:04.749Z,96282.28
2023-06-17T00:23:37.417Z,96288.44
2023-06-17T00:24:09.244Z,96278.81
2023-06-17T00:24:41.137Z,96284.63
2023-06-17T00:25:13.390Z,96281.50
2023-06-17T00:25:45.217Z,96287.28
2023-06-17T00:26:17.044Z,96280.78
2023-06-17T00:26:49.550Z,96276.22
2023-06-17T00:27:21.283Z,96284.97
2023-06-17T00:27:53.060Z,96281.50
2023-06-17T00:28:24.827Z,96276.00
2023-06-17T00:28:57.630Z,96278.25
2023-06-17T00:29:29.480Z,96275.56
2023-06-17T00:30:01.537Z,96271.78
2023-06-17T00:30:37.615Z,96274.03
2023-06-17T00:31:09.342Z,96275.22
2023-06-17T00:31:42.618Z,96281.22
2023-06-17T00:32:15.198Z,96276.31
2023-06-17T00:32:47.742Z,96276.72
2023-06-17T00:33:19.716Z,96279.84
2023-06-17T00:33:51.520Z,96272.84
2023-06-17T00:34:23.283Z,96275.88
2023-06-17T00:34:56.469Z,96281.66
2023-06-17T00:35:28.247Z,96277.44
2023-06-17T00:36:00.082Z,96271.63
2023-06-17T00:36:32.014Z,96271.22
2023-06-17T00:37:04.248Z,96276.94
2023-06-17T00:37:36.238Z,96275.88
2023-06-17T00:38:09.682Z,96270.88
2023-06-17T00:38:41.472Z,96271.59
2023-06-17T00:39:14.620Z,96277.00
2023-06-17T00:39:46.568Z,96276.31
2023-06-17T00:40:19.502Z,96272.09
2023-06-17T00:40:51.485Z,96272.44
2023-06-17T00:41:23.918Z,96270.09
2023-06-17T00:41:58.187Z,96275.41
2023-06-17T00:42:30.908Z,96273.13
2023-06-17T00:43:02.916Z,96275.06
2023-06-17T00:43:34.745Z,96271.94
2023-06-17T00:44:06.656Z,96273.47
2023-06-17T00:44:41.047Z,96268.84
2023-06-17T00:45:12.836Z,96267.25
2023-06-17T00:45:44.670Z,96277.09
2023-06-17T00:46:35.370Z,96271.59
2023-06-17T00:47:08.560Z,96273.16
2023-06-17T00:47:41.562Z,96272.38
2023-06-17T00:48:14.639Z,96278.16
2023-06-17T00:48:46.545Z,96267.56
2023-06-17T00:49:18.622Z,96275.25
2023-06-17T00:49:52.249Z,96277.19
2023-06-17T00:50:25.888Z,96270.25
2023-06-17T00:51:03.019Z,96277.19
2023-06-17T00:51:35.099Z,96272.16
2023-06-17T00:52:31.048Z,96273.22
2023-06-17T00:53:02.464Z,96269.34
2023-06-17T00:53:34.735Z,96277.31
2023-06-17T00:54:08.518Z,96274.69
2023-06-17T00:54:42.255Z,96275.06
2023-06-17T00:55:14.332Z,96276.19
2023-06-17T00:55:46.171Z,96267.03
2023-06-17T00:56:18.897Z,96273.50
2023-06-17T00:56:54.208Z,96273.16
2023-06-17T00:57:26.215Z,96268.41
2023-06-17T00:57:58.506Z,96271.94
2023-06-17T00:58:30.536Z,96273.09
2023-06-17T00:59:03.967Z,96268.00
2023-06-17T00:59:38.256Z,96270.34
2023-06-17T01:00:12.316Z,96276.81
2023-06-17T01:00:44.702Z,96272.25
2023-06-17T01:01:18.928Z,96280.56
2023-06-17T01:01:51.810Z,96279.03
2023-06-17T01:02:26.721Z,96280.56
2023-06-17T01:02:59.812Z,96271.84
2023-06-17T01:03:31.906Z,96279.16
2023-06-17T01:04:06.453Z,96275.72
2023-06-17T01:04:43.574Z,96268.88
2023-06-17T01:05:18.877Z,96275.78
2023-06-17T01:05:54.220Z,96271.88
2023-06-17T01:06:34.745Z,96273.03
2023-06-17T01:07:25.280Z,96280.69
2023-06-17T01:08:15.277Z,96273.31
2023-06-17T01:08:58.742Z,96264.75
2023-06-17T01:09:36.124Z,96272.88
2023-06-17T01:10:18.300Z,96271.03
2023-06-17T01:11:04.237Z,96269.78
2023-06-17T01:11:37.849Z,96271.25
2023-06-17T01:12:13.736Z,96273.94
2023-06-17T01:12:47.620Z,96276.63
2023-06-17T01:13:20.194Z,96272.03
2023-06-17T01:13:56.162Z,96270.97
2023-06-17T01:14:29.133Z,96269.78
2023-06-17T01:15:02.350Z,96274.00
2023-06-17T01:15:36.614Z,96271.31
2023-06-17T01:16:09.477Z,96264.34
2023-06-17T01:16:43.125Z,96272.47
2023-06-17T01:17:19.100Z,96270.53
2023-06-17T01:17:55.637Z,96273.50
2023-06-17T01:18:29.061Z,96278.16
2023-06-17T01:19:01.068Z,96261.28
2023-06-17T01:19:36.489Z,96267.38
2023-06-17T01:20:10.045Z,96273.78
2023-06-17T01:20:43.551Z,96271.53
2023-06-17T01:21:21.855Z,96266.47
2023-06-17T01:21:54.600Z,96274.13
2023-06-17T01:22:29.514Z,96265.69
2023-06-17T01:23:02.753Z,96272.88
2023-06-17T01:23:36.693Z,96266.31
2023-06-17T01:24:10.217Z,96278.66
2023-06-17T01:24:43.264Z,96277.88
2023-06-17T01:25:15.669Z,96272.81
2023-06-17T01:25:47.816Z,96277.81
2023-06-17T01:26:20.881Z,96271.31
2023-06-17T01:26:57.594Z,96272.16
2023-06-17T01:27:30.511Z,96273.31
2023-06-17T01:28:17.881Z,96274.69
2023-06-17T01:28:54.408Z,96274.19
2023-06-17T01:29:30.536Z,96274.88
2023-06-17T01:30:04.003Z,96272.59
2023-06-17T01:30:36.845Z,96266.16
2023-06-17T01:31:14.035Z,96275.06
2023-06-17T01:31:50.258Z,96277.75
2023-06-17T01:32:23.326Z,96271.84
2023-06-17T01:32:58.117Z,96277.22
2023-06-17T01:33:31.914Z,96272.47
2023-06-17T01:34:06.984Z,96275.56
2023-06-17T01:34:48.424Z,96274.03
2023-06-17T01:35:20.414Z,96275.84
2023-06-17T01:35:58.863Z,96271.97
2023-06-17T01:36:34.511Z,96275.84
2023-06-17T01:37:12.665Z,96271.53
2023-06-17T01:37:52.620Z,96277.31
2023-06-17T01:38:31.612Z,96272.25
2023-06-17T01:39:05.127Z,96271.53
2023-06-17T01:39:43.796Z,96273.44
2023-06-17T01:40:20.226Z,96268.34
2023-06-17T01:40:59.717Z,96273.28
2023-06-17T01:41:37.520Z,96278.47
2023-06-17T01:42:26.336Z,96279.88
2023-06-17T01:43:02.764Z,96281.16
2023-06-17T01:43:37.584Z,96281.88
2023-06-17T01:44:09.752Z,96276.19
2023-06-17T01:44:43.040Z,96276.19
2023-06-17T01:45:16.059Z,96282.56
2023-06-17T01:45:48.678Z,96275.47
2023-06-17T01:46:21.170Z,96278.69
2023-06-17T01:46:53.155Z,96281.34
2023-06-17T01:47:25.244Z,96280.94
2023-06-17T01:47:57.160Z,96283.53
2023-06-17T01:48:29.256Z,96279.56
2023-06-17T01:49:01.471Z,96272.38
2023-06-17T01:49:33.375Z,96275.00
2023-06-17T01:50:07.071Z,96285.19
2023-06-17T01:50:39.933Z,96281.03
2023-06-17T01:51:11.746Z,96276.47
2023-06-17T01:51:43.589Z,96275.34
2023-06-17T01:52:15.386Z,96270.66
2023-06-17T01:52:47.735Z,96284.41
2023-06-17T01:53:19.919Z,96274.13
2023-06-17T01:53:52.780Z,96275.34
2023-06-17T01:54:24.914Z,96278.34
2023-06-17T01:54:57.954Z,96285.53
2023-06-17T01:55:29.961Z,96271.72
2023-06-17T01:56:01.972Z,96280.88
2023-06-17T01:56:33.946Z,96280.00
2023-06-17T01:57:07.087Z,96279.94
2023-06-17T01:57:39.543Z,96285.09
2023-06-17T01:58:11.830Z,96285.78
2023-06-17T01:58:43.779Z,96279.75
2023-06-17T01:59:17.144Z,96280.44
2023-06-17T01:59:49.045Z,96284.16
2023-06-17T02:00:23.172Z,96284.25
2023-06-17T02:00:58.124Z,96285.38
2023-06-17T02:01:29.926Z,96280.44
2023-06-17T02:02:01.821Z,96283.38
2023-06-17T02:02:33.818Z,96286.31
2023-06-17T02:03:06.996Z,96283.75
2023-06-17T02:03:40.352Z,96282.16
2023-06-17T02:04:12.234Z,96283.75
2023-06-17T02:04:45.839Z,96283.28
2023-06-17T02:05:17.723Z,96286.31
2023-06-17T02:05:50.973Z,96282.09
2023-06-17T02:06:22.795Z,96285.44
2023-06-17T02:06:55.663Z,96290.03
2023-06-17T02:07:28.468Z,96288.13
2023-06-17T02:08:01.566Z,96282.88
2023-06-17T02:08:38.323Z,96283.56
2023-06-17T02:09:10.105Z,96279.75
2023-06-17T02:09:41.867Z,96289.69
2023-06-17T02:10:13.685Z,96279.75
2023-06-17T02:10:45.962Z,96285.03
2023-06-17T02:11:18.357Z,96286.56
2023-06-17T02:11:51.595Z,96293.47
2023-06-17T02:12:25.669Z,96287.69
2023-06-17T02:12:57.644Z,96297.59
2023-06-17T02:13:29.547Z,96278.88
2023-06-17T02:14:02.769Z,96287.28
2023-06-17T02:14:34.703Z,96280.72
2023-06-17T02:15:07.409Z,96289.50
2023-06-17T02:15:43.460Z,96289.50
2023-06-17T02:16:17.592Z,96287.41
2023-06-17T02:16:50.163Z,96288.88
2023-06-17T02:17:24.824Z,96291.91
2023-06-17T02:17:57.613Z,96283.88
2023-06-17T02:18:33.420Z,96293.28
2023-06-17T02:19:05.933Z,96287.84
2023-06-17T02:19:39.057Z,96290.59
2023-06-17T02:20:11.883Z,96284.50
2023-06-17T02:20:44.354Z,96285.41
2023-06-17T02:21:16.759Z,96291.31
2023-06-17T02:21:48.602Z,96287.16
2023-06-17T02:22:20.423Z,96286.03
2023-06-17T02:22:52.233Z,96288.00
2023-06-17T02:23:24.100Z,96287.25
2023-06-17T02:23:58.169Z,96295.69
2023-06-17T02:24:30.224Z,96290.47
2023-06-17T02:25:03.258Z,96286.53
2023-06-17T02:25:35.309Z,96296.03
2023-06-17T02:26:07.040Z,96289.13
2023-06-17T02:26:40.725Z,96294.81
2023-06-17T02:27:13.272Z,96297.16
2023-06-17T02:27:45.162Z,96298.72
2023-06-17T02:28:16.939Z,96297.25
2023-06-17T02:28:49.244Z,96288.78
2023-06-17T02:29:21.175Z,96294.16
2023-06-17T02:29:53.629Z,96296.41
2023-06-17T02:30:25.777Z,96293.81
2023-06-17T02:30:58.179Z,96293.13
2023-06-17T02:31:30.163Z,96288.47
2023-06-17T02:32:02.149Z,96288.88
2023-06-17T02:32:34.132Z,96286.22
2023-06-17T02:33:06.706Z,96286.66
2023-06-17T02:33:38.693Z,96286.47
2023-06-17T02:34:10.551Z,96290.34
2023-06-17T02:34:43.642Z,96292.69
2023-06-17T02:35:16.364Z,96288.47
2023-06-17T02:35:48.117Z,96287.34
2023-06-17T02:36:20.154Z,96284.91
2023-06-17T02:36:52.974Z,96284.22
2023-06-17T02:37:26.035Z,96285.78
2023-06-17T02:37:58.436Z,96285.88
2023-06-17T02:38:30.197Z,96274.81
2023-06-17T02:39:02.079Z,96281.72
2023-06-17T02:39:34.370Z,96284.06
2023-06-17T02:40:09.797Z,96285.94
2023-06-17T02:40:41.615Z,96286.31
2023-06-17T02:41:14.908Z,96285.69
2023-06-17T02:41:46.752Z,96281.13
2023-06-17T02:42:18.620Z,96282.84
2023-06-17T02:42:50.452Z,96270.69
2023-06-17T02:43:22.443Z,96280.25
2023-06-17T02:43:54.228Z,96286.75
2023-06-17T02:44:26.090Z,96277.66
2023-06-17T02:44:57.949Z,96284.06
2023-06-17T02:45:31.583Z,96292.75
2023-06-17T02:46:03.420Z,96285.78
2023-06-17T02:46:37.040Z,96292.69
2023-06-17T02:47:09.362Z,96286.47
2023-06-17T02:47:42.115Z,96288.25
2023-06-17T02:48:15.242Z,96290.19
2023-06-17T02:48:47.381Z,96288.72
2023-06-17T02:49:19.274Z,96287.25
2023-06-17T02:49:51.096Z,96290.47
2023-06-17T02:50:24.403Z,96287.59
2023-06-17T02:50:56.399Z,96286.38
2023-06-17T02:51:28.976Z,96290.34
2023-06-17T02:52:01.032Z,96292.69
2023-06-17T02:52:35.287Z,96288.47
2023-06-17T02:53:08.799Z,96289.47
2023-06-17T02:53:41.464Z,96294.94
2023-06-17T02:54:13.461Z,96293.28
2023-06-17T02:54:45.330Z,96291.06
2023-06-17T02:55:26.377Z,96292.75
2023-06-17T02:55:58.837Z,96290.09
2023-06-17T02:56:31.631Z,96294.75
2023-06-17T02:57:03.603Z,96293.09
2023-06-17T02:57:36.699Z,96295.69
2023-06-17T02:58:08.633Z,96286.19
2023-06-17T02:58:46.833Z,96293.34
2023-06-17T02:59:19.215Z,96289.97
2023-06-17T02:59:54.614Z,96288.09
2023-06-17T03:00:26.837Z,96297.50
2023-06-17T03:00:59.142Z,96294.81
2023-06-17T03:01:33.885Z,96295.06
2023-06-17T03:02:06.596Z,96292.81
2023-06-17T03:02:38.667Z,96294.38
2023-06-17T03:03:10.979Z,96297.91
2023-06-17T03:03:42.984Z,96299.78
2023-06-17T03:04:15.608Z,96298.50
2023-06-17T03:04:47.679Z,96298.72
2023-06-17T03:05:19.721Z,96298.88
2023-06-17T03:05:52.101Z,96295.66
2023-06-17T03:06:24.274Z,96301.56
2023-06-17T03:06:57.839Z,96304.00
2023-06-17T03:07:31.356Z,96305.13
2023-06-17T03:08:03.587Z,96295.31
2023-06-17T03:08:40.806Z,96299.13
2023-06-17T03:09:12.973Z,96308.69
2023-06-17T03:09:45.902Z,96307.13
2023-06-17T03:10:19.482Z,96308.94
2023-06-17T03:10:57.471Z,96307.72
2023-06-17T03:11:30.215Z,96307.56
2023-06-17T03:12:07.277Z,96305.78
2023-06-17T03:12:40.044Z,96309.13
2023-06-17T03:13:12.178Z,96304.72
2023-06-17T03:13:47.540Z,96306.16
2023-06-17T03:14:33.069Z,96309.97
2023-06-17T03:15:07.446Z,96303.59
2023-06-17T03:15:41.212Z,96307.38
2023-06-17T03:16:14.207Z,96304.38
2023-06-17T03:16:46.611Z,96304.94
2023-06-17T03:17:18.749Z,96308.38
2023-06-17T03:17:51.389Z,96307.94
2023-06-17T03:18:23.373Z,96308.44
2023-06-17T03:18:56.081Z,96308.34
2023-06-17T03:19:28.276Z,96305.66
2023-06-17T03:20:00.548Z,96311.34
2023-06-17T03:20:32.781Z,96305.44
2023-06-17T03:21:04.566Z,96305.31
2023-06-17T03:21:41.932Z,96314.22
2023-06-17T03:22:14.424Z,96308.84
2023-06-17T03:22:52.302Z,96311.00
2023-06-17T03:23:24.365Z,96310.41
2023-06-17T03:23:59.756Z,96308.09
2023-06-17T03:24:32.020Z,96310.78
2023-06-17T03:25:04.927Z,96309.75
2023-06-17T03:25:37.746Z,96307.41
2023-06-17T03:26:12.915Z,96299.06
2023-06-17T03:26:46.049Z,96308.72
2023-06-17T03:27:17.967Z,96305.94
2023-06-17T03:27:49.966Z,96300.50
2023-06-17T03:28:21.879Z,96305.19
2023-06-17T03:28:55.023Z,96304.06
2023-06-17T03:29:27.111Z,96302.94
2023-06-17T03:29:59.927Z,96308.72
2023-06-17T03:30:31.876Z,96311.63
2023-06-17T03:31:04.383Z,96309.31
2023-06-17T03:31:36.694Z,96306.75
2023-06-17T03:32:08.593Z,96310.06
2023-06-17T03:32:40.742Z,96305.94
2023-06-17T03:33:14.594Z,96309.50
2023-06-17T03:33:52.551Z,96306.75
2023-06-17T03:34:25.586Z,96307.63
2023-06-17T03:34:58.156Z,96304.25
2023-06-17T03:35:30.026Z,96304.25
2023-06-17T03:36:02.349Z,96300.81
2023-06-17T03:36:34.921Z,96303.16
2023-06-17T03:37:06.973Z,96304.00
2023-06-17T03:37:38.721Z,96302.47
2023-06-17T03:38:10.799Z,96304.47
2023-06-17T03:38:43.053Z,96304.78
2023-06-17T03:39:14.910Z,96302.91
2023-06-17T03:39:46.862Z,96309.03
2023-06-17T03:40:19.159Z,96302.66
2023-06-17T03:40:52.464Z,96315.25
2023-06-17T03:41:24.926Z,96308.78
2023-06-17T03:41:58.205Z,96312.34
2023-06-17T03:42:31.611Z,96311.22
2023-06-17T03:43:03.766Z,96310.78
2023-06-17T03:43:35.592Z,96313.13
2023-06-17T03:44:07.597Z,96307.06
2023-06-17T03:44:39.526Z,96314.00
2023-06-17T03:45:11.674Z,96309.09
2023-06-17T03:45:44.708Z,96314.13
2023-06-17T03:46:17.710Z,96315.25
2023-06-17T03:46:49.629Z,96315.00
2023-06-17T03:47:21.373Z,96314.66
2023-06-17T03:47:54.026Z,96314.88
2023-06-17T03:48:26.104Z,96309.53
2023-06-17T03:48:58.665Z,96312.66
2023-06-17T03:49:30.536Z,96318.88
2023-06-17T03:50:02.401Z,96309.72
2023-06-17T03:50:36.025Z,96314.75
2023-06-17T03:51:08.511Z,96315.19
2023-06-17T03:51:41.280Z,96314.41
2023-06-17T03:52:13.286Z,96312.16
2023-06-17T03:52:45.172Z,96309.06
2023-06-17T03:53:17.670Z,96315.25
2023-06-17T03:53:49.948Z,96312.34
2023-06-17T03:54:21.728Z,96311.25
2023-06-17T03:54:55.150Z,96311.25
2023-06-17T03:55:27.661Z,96312.25
2023-06-17T03:56:01.486Z,96316.63
2023-06-17T03:56:33.598Z,96313.88
2023-06-17T03:57:05.970Z,96306.38
2023-06-17T03:57:38.337Z,96315.97
2023-06-17T03:58:15.798Z,96312.09
2023-06-17T03:58:48.248Z,96314.38
2023-06-17T03:59:20.064Z,96318.19
2023-06-17T03:59:53.793Z,96317.47
2023-06-17T04:00:25.589Z,96321.09
2023-06-17T04:00:57.547Z,96313.69
2023-06-17T04:01:29.505Z,96314.13
2023-06-17T04:02:01.702Z,96313.09
2023-06-17T04:02:33.845Z,96314.28
2023-06-17T04:03:05.867Z,96304.59
2023-06-17T04:03:39.139Z,96312.53
2023-06-17T04:04:11.176Z,96304.69
2023-06-17T04:04:44.004Z,96304.44
2023-06-17T04:05:16.699Z,96305.25
2023-06-17T04:05:50.324Z,96300.47
2023-06-17T04:06:22.394Z,96304.41
2023-06-17T04:06:54.197Z,96308.91
2023-06-17T04:07:26.097Z,96306.25
2023-06-17T04:07:59.981Z,96308.44
2023-06-17T04:08:34.052Z,96309.19
2023-06-17T04:09:06.488Z,96313.06
2023-06-17T04:09:42.336Z,96301.88
2023-06-17T04:10:19.970Z,96308.91
2023-06-17T04:10:51.772Z,96308.34
2023-06-17T04:11:23.542Z,96308.38
2023-06-17T04:11:55.408Z,96304.41
2023-06-17T04:12:27.195Z,96303.13
2023-06-17T04:12:59.248Z,96308.16
2023-06-17T04:13:32.053Z,96301.78
2023-06-17T04:14:04.021Z,96304.13
2023-06-17T04:14:35.831Z,96299.59
2023-06-17T04:15:08.909Z,96301.50
2023-06-17T04:15:41.851Z,96305.03
2023-06-17T04:16:16.365Z,96298.31
2023-06-17T04:16:50.320Z,96306.25
2023-06-17T04:17:22.104Z,96296.53
2023-06-17T04:17:57.202Z,96297.56
2023-06-17T04:18:30.451Z,96302.50
2023-06-17T04:19:02.990Z,96302.50
2023-06-17T04:19:38.867Z,96299.16
2023-06-17T04:20:14.184Z,96297.84
2023-06-17T04:20:46.080Z,96295.06
2023-06-17T04:21:18.009Z,96300.13
2023-06-17T04:21:50.955Z,96306.19
2023-06-17T04:22:23.777Z,96295.59
2023-06-17T04:22:55.797Z,96298.00
2023-06-17T04:23:28.333Z,96298.22
2023-06-17T04:24:01.061Z,96303.00
2023-06-17T04:24:33.515Z,96293.66
2023-06-17T04:25:06.856Z,96305.94
2023-06-17T04:25:39.852Z,96303.25
2023-06-17T04:26:14.341Z,96302.50
2023-06-17T04:26:47.065Z,96301.94
2023-06-17T04:27:20.590Z,96299.25
2023-06-17T04:27:54.939Z,96301.09
2023-06-17T04:28:32.967Z,96293.22
2023-06-17T04:29:05.686Z,96300.97
2023-06-17T04:29:38.534Z,96298.97
2023-06-17T04:30:10.976Z,96297.53
2023-06-17T04:30:48.818Z,96299.31
2023-06-17T04:31:20.696Z,96299.84
2023-06-17T04:31:53.755Z,96300.25
2023-06-17T04:32:27.663Z,96292.59
2023-06-17T04:33:01.545Z,96300.34
2023-06-17T04:33:38.985Z,96298.38
2023-06-17T04:34:22.325Z,96295.81
2023-06-17T04:34:55.528Z,96294.38
2023-06-17T04:35:28.351Z,96294.50
2023-06-17T04:36:09.634Z,96290.88
2023-06-17T04:36:44.677Z,96300.25
2023-06-17T04:37:17.746Z,96295.16
2023-06-17T04:37:54.824Z,96291.34
2023-06-17T04:38:27.305Z,96295.75
2023-06-17T04:38:59.827Z,96301.19
2023-06-17T04:39:35.794Z,96294.63
2023-06-17T04:40:13.388Z,96295.75
2023-06-17T04:40:48.051Z,96299.31
2023-06-17T04:41:20.218Z,96292.47
2023-06-17T04:41:53.512Z,96296.88
2023-06-17T04:42:26.132Z,96297.28
2023-06-17T04:42:58.538Z,96298.41
2023-06-17T04:43:31.450Z,96298.31
2023-06-17T04:44:04.390Z,96295.75
2023-06-17T04:44:38.593Z,96297.63
2023-06-17T04:45:10.742Z,96299.00
2023-06-17T04:45:42.938Z,96294.88
2023-06-17T04:46:19.482Z,96295.84
2023-06-17T04:46:52.223Z,96289.28
2023-06-17T04:47:24.541Z,96300.19
2023-06-17T04:47:56.823Z,96293.06
2023-06-17T04:48:30.192Z,96293.97
2023-06-17T04:49:01.984Z,96298.53
2023-06-17T04:49:39.912Z,96301.59
2023-06-17T04:50:13.948Z,96296.34
2023-06-17T04:50:45.747Z,96296.53
2023-06-17T04:51:19.227Z,96292.69
2023-06-17T04:51:53.649Z,96299.09
2023-06-17T04:52:26.526Z,96300.06
2023-06-17T04:53:05.028Z,96302.94
2023-06-17T04:53:40.111Z,96301.59
2023-06-17T04:54:12.321Z,96298.16
2023-06-17T04:54:45.436Z,96303.22
2023-06-17T04:55:19.601Z,96305.97
2023-06-17T04:55:52.057Z,96300.22
2023-06-17T04:56:27.905Z,96305.25
2023-06-17T04:57:00.440Z,96299.25
2023-06-17T04:57:32.240Z,96296.31
2023-06-17T04:58:05.588Z,96299.19
2023-06-17T04:58:44.250Z,96305.56
2023-06-17T04:59:21.237Z,96305.31
2023-06-17T04:59:53.093Z,96303.19
2023-06-17T05:00:26.446Z,96302.25
2023-06-17T05:00:58.426Z,96302.03
2023-06-17T05:01:32.634Z,96297.75
2023-06-17T05:02:04.885Z,96298.19
2023-06-17T05:02:40.165Z,96297.47
2023-06-17T05:03:12.318Z,96290.59
2023-06-17T05:03:44.320Z,96298.28
2023-06-17T05:04:17.631Z,96294.91
2023-06-17T05:04:49.448Z,96295.28
2023-06-17T05:05:21.580Z,96296.06
2023-06-17T05:05:54.616Z,96293.75
2023-06-17T05:06:27.890Z,96294.53
2023-06-17T05:06:59.934Z,96290.88
2023-06-17T05:07:31.909Z,96292.16
2023-06-17T05:08:03.925Z,96293.81
2023-06-17T05:08:36.183Z,96285.72
2023-06-17T05:09:08.608Z,96290.84
2023-06-17T05:09:42.590Z,96288.38
2023-06-17T05:10:16.024Z,96290.38
2023-06-17T05:10:48.223Z,96289.25
2023-06-17T05:11:20.049Z,96288.84
2023-06-17T05:11:52.158Z,96290.06
2023-06-17T05:12:23.953Z,96288.53
2023-06-17T05:12:55.782Z,96283.03
2023-06-17T05:13:32.551Z,96296.28
2023-06-17T05:14:05.910Z,96283.19
2023-06-17T05:14:37.707Z,96287.03
2023-06-17T05:15:10.532Z,96285.88
2023-06-17T05:15:42.336Z,96288.59
2023-06-17T05:16:15.318Z,96294.72
2023-06-17T05:16:47.567Z,96296.66
2023-06-17T05:17:19.559Z,96290.16
2023-06-17T05:17:51.507Z,96297.47
2023-06-17T05:18:23.589Z,96294.75
2023-06-17T05:18:57.305Z,96286.84
2023-06-17T05:19:29.142Z,96287.75
2023-06-17T05:20:01.738Z,96285.88
2023-06-17T05:20:35.734Z,96288.22
2023-06-17T05:21:07.571Z,96281.28
2023-06-17T05:21:39.338Z,96288.25
2023-06-17T05:22:11.149Z,96280.81
2023-06-17T05:22:43.008Z,96283.19
2023-06-17T05:23:14.902Z,96285.50
2023-06-17T05:23:46.760Z,96292.81
2023-06-17T05:24:18.601Z,96280.88
2023-06-17T05:24:52.794Z,96280.09
2023-06-17T05:25:24.795Z,96290.16
2023-06-17T05:25:56.577Z,96292.47
2023-06-17T05:26:28.638Z,96291.97
2023-06-17T05:27:00.973Z,96293.97
2023-06-17T05:27:33.644Z,96281.94
2023-06-17T05:28:11.679Z,96283.09
2023-06-17T05:28:44.391Z,96283.13
2023-06-17T05:29:16.271Z,96290.53
2023-06-17T05:29:49.555Z,96294.38
2023-06-17T05:30:21.561Z,96287.47
2023-06-17T05:30:56.639Z,96291.63
2023-06-17T05:31:28.628Z,96287.84
2023-06-17T05:32:00.672Z,96293.22
2023-06-17T05:32:32.762Z,96288.97
2023-06-17T05:33:05.896Z,96292.84
2023-06-17T05:33:37.985Z,96296.66
2023-06-17T05:34:09.916Z,96291.94
2023-06-17T05:34:41.744Z,96298.22
2023-06-17T05:35:13.626Z,96288.16
2023-06-17T05:35:45.876Z,96293.91
2023-06-17T05:36:17.927Z,96300.16
2023-06-17T05:36:49.769Z,96290.94
2023-06-17T05:37:21.561Z,96293.63
2023-06-17T05:37:53.396Z,96297.50
2023-06-17T05:38:25.313Z,96290.84
2023-06-17T05:38:58.185Z,96298.28
2023-06-17T05:39:30.168Z,96295.53
2023-06-17T05:40:02.185Z,96292.88
2023-06-17T05:40:34.654Z,96297.09
2023-06-17T05:41:06.977Z,96292.47
2023-06-17T05:41:39.254Z,96291.31
2023-06-17T05:42:13.309Z,96294.78
2023-06-17T05:42:46.321Z,96294.00
2023-06-17T05:43:18.243Z,96290.88
2023-06-17T05:43:50.191Z,96293.59
2023-06-17T05:44:22.188Z,96293.91
2023-06-17T05:44:55.691Z,96291.63
2023-06-17T05:45:27.862Z,96294.31
2023-06-17T05:45:59.738Z,96301.56
2023-06-17T05:46:31.658Z,96299.28
2023-06-17T05:47:03.821Z,96297.69
2023-06-17T05:47:35.856Z,96304.56
2023-06-17T05:48:07.755Z,96301.22
2023-06-17T05:48:39.665Z,96293.03
2023-06-17T05:49:11.484Z,96293.81
2023-06-17T05:49:44.299Z,96298.41
2023-06-17T05:50:16.214Z,96299.16
2023-06-17T05:50:48.441Z,96296.38
2023-06-17T05:51:20.265Z,96296.69
2023-06-17T05:51:52.787Z,96293.75
2023-06-17T05:52:25.416Z,96306.53
2023-06-17T05:52:57.568Z,96299.16
2023-06-17T05:53:29.522Z,96298.31
2023-06-17T05:54:01.543Z,96298.81
2023-06-17T05:54:33.800Z,96298.50
2023-06-17T05:55:06.172Z,96297.66
2023-06-17T05:55:38.153Z,96295.44
2023-06-17T05:56:10.675Z,96298.81
2023-06-17T05:56:42.767Z,96300.44
2023-06-17T05:57:14.888Z,96301.88
2023-06-17T05:57:47.038Z,96298.28
2023-06-17T05:58:20.077Z,96303.25
2023-06-17T05:58:58.201Z,96304.19
2023-06-17T05:59:42.672Z,96295.75
2023-06-17T06:00:14.699Z,96300.41
2023-06-17T06:00:47.857Z,96304.28
2023-06-17T06:01:20.047Z,96305.47
2023-06-17T06:01:52.986Z,96302.41
2023-06-17T06:02:24.901Z,96296.53
2023-06-17T06:02:56.781Z,96302.28
2023-06-17T06:03:28.790Z,96298.03
2023-06-17T06:04:01.017Z,96301.00
2023-06-17T06:04:32.880Z,96297.69
2023-06-17T06:05:05.368Z,96310.94
2023-06-17T06:05:37.396Z,96293.56
2023-06-17T06:06:09.215Z,96304.59
2023-06-17T06:06:41.035Z,96301.50
2023-06-17T06:07:13.008Z,96297.34
2023-06-17T06:07:45.051Z,96297.91
2023-06-17T06:08:16.886Z,96296.81
2023-06-17T06:08:48.680Z,96304.38
2023-06-17T06:09:20.543Z,96297.69
2023-06-17T06:09:53.005Z,96301.47
2023-06-17T06:10:28.074Z,96297.03
2023-06-17T06:11:02.556Z,96301.75
2023-06-17T06:11:35.621Z,96302.00
2023-06-17T06:12:07.645Z,96305.69
2023-06-17T06:12:40.856Z,96295.47
2023-06-17T06:13:12.775Z,96305.06
2023-06-17T06:13:45.275Z,96303.28
2023-06-17T06:14:19.310Z,96302.47
2023-06-17T06:14:54.821Z,96303.28
2023-06-17T06:15:26.912Z,96303.13
2023-06-17T06:15:59.017Z,96303.94
2023-06-17T06:16:31.587Z,96294.41
2023-06-17T06:17:03.517Z,96305.53
2023-06-17T06:17:36.437Z,96303.28
2023-06-17T06:18:08.468Z,96300.75
2023-06-17T06:18:40.649Z,96305.66
2023-06-17T06:19:12.439Z,96304.03
2023-06-17T06:19:44.381Z,96297.50
2023-06-17T06:20:16.897Z,96300.03
2023-06-17T06:20:48.790Z,96299.19
2023-06-17T06:21:20.696Z,96302.16
2023-06-17T06:21:52.525Z,96303.81
2023-06-17T06:22:24.532Z,96298.44
2023-06-17T06:22:58.835Z,96302.06
2023-06-17T06:23:32.032Z,96301.81
2023-06-17T06:24:06.590Z,96308.25
2023-06-17T06:24:44.809Z,96306.00
2023-06-17T06:25:16.776Z,96307.19
2023-06-17T06:25:48.712Z,96302.53
2023-06-17T06:26:21.607Z,96306.94
2023-06-17T06:26:53.780Z,96302.78
2023-06-17T06:27:27.317Z,96300.13
2023-06-17T06:27:59.828Z,96311.06
2023-06-17T06:28:33.607Z,96304.19
2023-06-17T06:29:05.514Z,96311.19
2023-06-17T06:29:38.516Z,96311.13
2023-06-17T06:30:10.891Z,96308.91
2023-06-17T06:30:48.210Z,96309.19